Time;durP1;ratioP1;P1;durP2;ratioP2;P2;SDS_P1;SDS_P2;PMS_P1;PMS_P2;Temp;Humidity;BMP_temperature;BMP_pressure;BME280_temperature;BME280_humidity;BME280_pressure;Samples;Min_cycle;Max_cycle;Signal;HPM_P1;HPM_P2
2021/12/12 00:00:27;;;;;;;42.60;32.05;;;;;;;1.74;100.00;101096.91;1738454;82;21293;-81
2021/12/12 00:03:45;;;;;;;45.75;34.58;;;;;;;1.72;100.00;101100.20;1736348;82;21230;-81
2021/12/12 00:06:54;;;;;;;51.23;42.15;;;;;;;1.71;100.00;101116.88;1738157;82;21721;-81
2021/12/12 00:10:04;;;;;;;66.22;53.25;;;;;;;1.73;100.00;101116.77;1738212;82;21278;-81
2021/12/12 00:13:13;;;;;;;41.10;29.30;;;;;;;1.73;100.00;101118.97;1738217;82;21226;-81
2021/12/12 00:16:19;;;;;;;65.72;53.17;;;;;;;1.76;100.00;101126.02;1738057;81;21226;-81
2021/12/12 00:19:25;;;;;;;45.98;35.70;;;;;;;1.76;100.00;101121.48;1738126;82;21194;-81
2021/12/12 00:22:33;;;;;;;35.00;24.25;;;;;;;1.77;100.00;101121.00;1738144;82;21337;-81
2021/12/12 00:25:43;;;;;;;46.58;33.78;;;;;;;1.79;100.00;101112.34;1738218;82;21272;-81
2021/12/12 00:28:47;;;;;;;112.12;92.65;;;;;;;1.83;100.00;101110.28;1737978;82;21312;-81
2021/12/12 00:31:57;;;;;;;65.72;53.28;;;;;;;1.83;100.00;101102.19;1735764;82;21313;-80
2021/12/12 00:35:04;;;;;;;89.03;74.95;;;;;;;1.82;100.00;101107.20;1737965;82;21226;-81
2021/12/12 00:38:17;;;;;;;65.30;54.25;;;;;;;1.84;100.00;101112.04;1736719;82;21823;-81
2021/12/12 00:41:25;;;;;;;79.42;68.30;;;;;;;1.85;100.00;101101.13;1737061;82;21344;-81
2021/12/12 00:44:30;;;;;;;50.58;40.40;;;;;;;1.87;100.00;101102.38;1719508;82;21709;-81
2021/12/12 00:47:35;;;;;;;110.68;97.02;;;;;;;1.86;100.00;101108.25;1738195;82;21285;-81
2021/12/12 00:50:44;;;;;;;59.20;52.70;;;;;;;1.83;100.00;101105.75;1737191;82;21860;-80
2021/12/12 00:53:51;;;;;;;33.73;27.65;;;;;;;1.77;100.00;101099.41;1737522;82;21321;-80
2021/12/12 00:56:56;;;;;;;55.45;44.90;;;;;;;1.77;100.00;101102.98;1737079;82;21258;-81
2021/12/12 01:00:02;;;;;;;29.75;19.95;;;;;;;1.77;100.00;101097.58;1737152;82;21310;-81
2021/12/12 01:03:09;;;;;;;48.10;38.67;;;;;;;1.78;100.00;101087.17;1735886;82;21222;-81
2021/12/12 01:06:15;;;;;;;73.20;61.35;;;;;;;1.81;100.00;101083.41;1737170;82;21304;-81
2021/12/12 01:09:24;;;;;;;102.35;89.58;;;;;;;1.81;100.00;101090.64;1736612;82;21210;-80
2021/12/12 01:12:33;;;;;;;48.73;40.95;;;;;;;1.79;100.00;101098.85;1738099;82;21170;-81
2021/12/12 01:15:43;;;;;;;73.95;64.75;;;;;;;1.79;100.00;101104.25;1738199;82;21309;-81
2021/12/12 01:18:52;;;;;;;64.00;56.77;;;;;;;1.79;100.00;101102.41;1738127;82;21380;-81
2021/12/12 01:22:01;;;;;;;27.98;22.22;;;;;;;1.75;100.00;101102.71;1738164;82;21369;-81
2021/12/12 01:25:15;;;;;;;29.70;20.97;;;;;;;1.72;100.00;101109.64;1738468;82;21210;-81
2021/12/12 01:28:24;;;;;;;74.30;62.90;;;;;;;1.72;100.00;101110.50;1738074;82;21162;-80
2021/12/12 01:31:31;;;;;;;73.52;65.52;;;;;;;1.71;100.00;101110.12;1737481;82;21381;-81
2021/12/12 01:34:36;;;;;;;82.08;73.17;;;;;;;1.69;100.00;101105.30;1735028;82;21787;-81
2021/12/12 01:37:50;;;;;;;44.40;39.63;;;;;;;1.65;100.00;101105.63;1736463;82;21802;-81
2021/12/12 01:40:52;;;;;;;32.88;28.55;;;;;;;1.61;100.00;101107.66;1737406;82;21331;-80
2021/12/12 01:43:58;;;;;;;58.17;48.02;;;;;;;1.59;100.00;101103.31;1737250;82;21307;-81
2021/12/12 01:47:19;;;;;;;38.73;31.95;;;;;;;1.55;100.00;101108.03;1715835;82;21872;-81
2021/12/12 01:50:38;;;;;;;49.13;42.85;;;;;;;1.56;100.00;101107.58;1735741;82;21954;-81
2021/12/12 01:53:45;;;;;;;33.00;29.40;;;;;;;1.50;100.00;101107.46;1735356;82;21315;-81
2021/12/12 01:56:54;;;;;;;27.48;21.20;;;;;;;1.47;100.00;101099.59;1737663;82;21799;-81
2021/12/12 02:00:01;;;;;;;22.80;19.25;;;;;;;1.48;100.00;101090.53;1737410;82;21311;-82
2021/12/12 02:03:07;;;;;;;22.58;16.75;;;;;;;1.48;100.00;101083.80;1736167;82;21411;-81
2021/12/12 02:06:15;;;;;;;21.05;16.40;;;;;;;1.48;100.00;101082.44;1735374;82;21861;-81
2021/12/12 02:09:20;;;;;;;57.53;49.03;;;;;;;1.45;100.00;101089.38;1736534;82;21358;-81
2021/12/12 02:12:29;;;;;;;78.97;69.62;;;;;;;1.45;100.00;101098.33;1736379;82;21846;-81
2021/12/12 02:15:37;;;;;;;46.58;38.95;;;;;;;1.44;100.00;101099.78;1735194;82;21331;-81
2021/12/12 02:18:45;;;;;;;41.05;34.10;;;;;;;1.41;100.00;101110.75;1736344;82;21880;-81
2021/12/12 02:22:04;;;;;;;96.45;85.25;;;;;;;1.40;100.00;101091.50;1734718;82;21331;-81
2021/12/12 02:35:42;;;;;;;40.60;32.15;;;;;;;1.17;100.00;101080.84;1735201;81;21216;-81
2021/12/12 02:38:27;;;;;;;90.53;79.77;;;;;;;1.22;100.00;101077.36;1737653;82;21830;-81
2021/12/12 02:41:34;;;;;;;66.72;57.75;;;;;;;1.20;100.00;101084.20;1739609;82;21172;-81
2021/12/12 02:44:40;;;;;;;38.73;28.73;;;;;;;1.18;100.00;101084.80;1740513;82;21901;-81
2021/12/12 02:47:53;;;;;;;114.67;99.97;;;;;;;1.16;100.00;101092.10;1740446;82;21815;-80
2021/12/12 02:50:56;;;;;;;81.22;67.47;;;;;;;1.15;100.00;101114.63;1740470;82;21275;-81
2021/12/12 02:54:04;;;;;;;147.40;128.23;;;;;;;1.12;100.00;101117.50;1739939;82;22564;-81
2021/12/12 02:57:10;;;;;;;123.82;103.85;;;;;;;1.13;100.00;101123.30;1739486;82;21213;-81
2021/12/12 03:00:21;;;;;;;53.95;44.95;;;;;;;1.11;100.00;101102.79;1739392;82;21296;-81
2021/12/12 03:03:28;;;;;;;88.07;75.00;;;;;;;1.09;100.00;101094.81;1739354;82;21232;-80
2021/12/12 03:06:37;;;;;;;98.42;84.72;;;;;;;1.08;100.00;101097.09;1738672;82;21335;-81
2021/12/12 03:09:50;;;;;;;65.50;53.80;;;;;;;1.06;100.00;101088.26;1739666;82;21862;-81
2021/12/12 03:12:56;;;;;;;29.12;21.95;;;;;;;1.01;100.00;101093.94;1738910;82;21161;-81
2021/12/12 03:16:02;;;;;;;33.70;25.77;;;;;;;0.93;100.00;101079.21;1740251;81;21890;-81
2021/12/12 03:19:06;;;;;;;42.55;33.60;;;;;;;0.91;100.00;101063.64;1739483;82;21843;-81
2021/12/12 03:22:16;;;;;;;87.82;76.25;;;;;;;0.89;100.00;101062.84;1738456;82;21327;-81
2021/12/12 03:25:20;;;;;;;146.50;119.20;;;;;;;0.89;100.00;101070.45;1740679;82;21264;-80
2021/12/12 03:28:29;;;;;;;94.13;75.65;;;;;;;0.88;100.00;101077.28;1739488;82;21307;-81
2021/12/12 03:31:41;;;;;;;69.00;57.17;;;;;;;0.84;100.00;101075.74;1739710;82;21272;-80
2021/12/12 03:34:52;;;;;;;144.37;124.97;;;;;;;0.80;100.00;101082.27;1740475;82;21288;-80
2021/12/12 03:37:58;;;;;;;53.92;42.45;;;;;;;0.75;100.00;101086.59;1736677;82;21169;-81
2021/12/12 03:41:05;;;;;;;52.95;43.02;;;;;;;0.74;100.00;101083.53;1736711;82;21874;-80
2021/12/12 03:44:15;;;;;;;48.38;34.08;;;;;;;0.74;100.00;101074.10;1735935;82;21378;-80
2021/12/12 03:47:30;;;;;;;;;;;;;;;0.70;100.00;101072.55;1739156;82;21330;-80
2021/12/12 03:50:41;;;;;;;29.48;17.67;;;;;;;0.68;100.00;101061.03;1736666;82;20614;-81
2021/12/12 03:53:47;;;;;;;54.42;42.13;;;;;;;0.62;100.00;101051.51;1737562;82;21165;-80
2021/12/12 03:56:51;;;;;;;50.45;40.08;;;;;;;0.61;100.00;101036.77;1737707;82;21327;-81
2021/12/12 03:59:57;;;;;;;42.30;31.57;;;;;;;0.55;100.00;101052.83;1736625;82;21346;-81
2021/12/12 04:03:02;;;;;;;82.42;68.22;;;;;;;0.46;100.00;101052.91;1736472;82;21313;-81
2021/12/12 04:06:11;;;;;;;45.65;35.40;;;;;;;0.40;100.00;101051.08;1736514;82;21315;-81
2021/12/12 04:09:16;;;;;;;72.92;57.50;;;;;;;0.38;100.00;101064.64;1737139;82;21870;-80
2021/12/12 04:12:23;;;;;;;51.13;40.38;;;;;;;0.35;100.00;101054.53;1737621;82;21815;-80
2021/12/12 04:15:29;;;;;;;50.63;36.73;;;;;;;0.31;100.00;101058.37;1737563;82;21154;-80
2021/12/12 04:18:34;;;;;;;25.60;15.60;;;;;;;0.28;100.00;101077.37;1736620;82;21322;-81
2021/12/12 04:21:41;;;;;;;22.73;14.47;;;;;;;0.21;100.00;101091.20;1737279;82;21229;-81
2021/12/12 04:24:51;;;;;;;25.52;14.93;;;;;;;0.20;100.00;101102.07;1735929;82;21913;-81
2021/12/12 04:27:55;;;;;;;31.93;15.93;;;;;;;0.22;100.00;101115.80;1737576;82;21213;-80
2021/12/12 04:31:01;;;;;;;26.45;15.83;;;;;;;0.24;100.00;101094.20;1737655;82;21799;-80
2021/12/12 04:34:07;;;;;;;25.82;15.40;;;;;;;0.25;100.00;101095.45;1737665;82;21295;-80
2021/12/12 04:37:13;;;;;;;28.05;15.00;;;;;;;0.28;100.00;101090.34;1734723;82;21228;-80
2021/12/12 04:40:20;;;;;;;25.77;15.32;;;;;;;0.31;100.00;101092.00;1723363;83;21259;-81
2021/12/12 04:43:25;;;;;;;26.97;14.55;;;;;;;0.32;100.00;101097.28;1723248;83;21818;-81
2021/12/12 04:46:38;;;;;;;31.15;14.90;;;;;;;0.35;100.00;101102.98;1723205;83;21223;-80
2021/12/12 04:49:56;;;;;;;24.37;14.87;;;;;;;0.38;100.00;101102.80;1723443;83;21266;-80
2021/12/12 04:53:05;;;;;;;25.30;14.28;;;;;;;0.38;100.00;101102.80;1723244;83;21954;-81
2021/12/12 04:56:49;;;;;;;21.10;13.45;;;;;;;0.27;100.00;101106.59;1721300;83;21199;-81
2021/12/12 05:00:09;;;;;;;37.70;21.75;;;;;;;0.21;100.00;101108.70;1722359;83;21294;-81
2021/12/12 05:03:42;;;;;;;206.28;76.20;;;;;;;0.19;100.00;101114.66;1723389;83;21200;-81
2021/12/12 05:06:52;;;;;;;539.15;170.70;;;;;;;0.17;100.00;101115.21;1723261;83;21794;-81
2021/12/12 05:10:23;;;;;;;;;;;;;;;0.12;100.00;101124.52;1724923;83;21290;-80
2021/12/12 05:13:46;;;;;;;37.70;20.85;;;;;;;0.10;100.00;101114.34;1722243;83;20292;-80
2021/12/12 05:16:52;;;;;;;199.93;138.18;;;;;;;0.08;100.00;101128.34;1723233;82;21313;-81
2021/12/12 05:20:03;;;;;;;99.60;76.37;;;;;;;0.07;100.00;101120.75;1722336;83;21298;-81
2021/12/12 05:23:15;;;;;;;130.45;94.28;;;;;;;0.08;100.00;101122.95;1723266;83;21769;-81
2021/12/12 05:26:25;;;;;;;54.98;40.70;;;;;;;0.07;100.00;101104.61;1723230;83;21318;-80
2021/12/12 05:29:41;;;;;;;154.15;126.20;;;;;;;0.08;100.00;101113.06;1722621;83;21235;-81
2021/12/12 05:32:48;;;;;;;101.05;82.82;;;;;;;0.08;100.00;101121.13;1721987;83;21282;-80
2021/12/12 05:35:55;;;;;;;99.07;78.37;;;;;;;0.07;100.00;101115.84;1721657;83;21302;-80
2021/12/12 05:39:00;;;;;;;96.25;80.57;;;;;;;0.08;100.00;101106.81;1722535;81;21325;-81
2021/12/12 05:42:07;;;;;;;115.75;89.17;;;;;;;0.08;100.00;101102.78;1722315;83;21834;-81
2021/12/12 05:45:13;;;;;;;121.07;101.22;;;;;;;0.06;100.00;101115.47;1722281;83;21223;-80
2021/12/12 05:48:18;;;;;;;46.70;34.98;;;;;;;0.07;100.00;101123.44;1722423;83;21235;-81
2021/12/12 05:51:23;;;;;;;82.85;68.10;;;;;;;0.10;100.00;101115.69;1722361;83;21358;-81
2021/12/12 05:54:32;;;;;;;52.62;38.60;;;;;;;0.14;100.00;101122.14;1723125;83;21236;-81
2021/12/12 05:57:38;;;;;;;126.90;94.77;;;;;;;0.14;100.00;101115.86;1723264;83;21282;-81
2021/12/12 06:00:48;;;;;;;90.92;73.15;;;;;;;0.11;100.00;101110.69;1723337;83;21282;-81
2021/12/12 06:03:54;;;;;;;;;;;;;;;0.08;100.00;101110.37;1725802;83;21851;-81
2021/12/12 06:07:00;;;;;;;108.65;85.35;;;;;;;0.06;100.00;101112.30;1723322;83;20670;-80
2021/12/12 06:10:06;;;;;;;74.03;57.40;;;;;;;0.06;100.00;101103.36;1723107;83;21845;-80
2021/12/12 06:13:11;;;;;;;83.47;65.40;;;;;;;0.07;100.00;101096.53;1723359;83;21275;-80
2021/12/12 06:16:20;;;;;;;128.55;99.95;;;;;;;0.04;100.00;101098.05;1723306;82;21912;-80
2021/12/12 06:19:29;;;;;;;174.27;137.68;;;;;;;0.02;100.00;101102.67;1704950;83;21144;-81
2021/12/12 06:22:34;;;;;;;68.07;52.58;;;;;;;0.02;100.00;101105.84;1722553;83;21306;-81
2021/12/12 06:25:39;;;;;;;203.32;163.62;;;;;;;0.02;100.00;101109.39;1722085;83;21271;-80
2021/12/12 06:28:47;;;;;;;55.78;43.20;;;;;;;-0.04;100.00;101108.41;1722290;83;21823;-80
2021/12/12 06:31:57;;;;;;;45.20;30.32;;;;;;;-0.09;100.00;101113.20;1722203;83;21825;-80
2021/12/12 06:35:05;;;;;;;29.90;18.33;;;;;;;-0.14;100.00;101122.88;1723555;83;21262;-80
2021/12/12 06:38:12;;;;;;;65.87;54.48;;;;;;;-0.12;100.00;101130.84;1723283;83;21271;-81
2021/12/12 06:41:17;;;;;;;112.30;96.47;;;;;;;-0.09;100.00;101139.61;1750765;82;21274;-80
2021/12/12 06:44:23;;;;;;;51.10;33.08;;;;;;;-0.05;100.00;101138.48;1750700;82;21823;-80
2021/12/12 06:47:28;;;;;;;130.22;101.80;;;;;;;-0.05;100.00;101129.52;1750735;82;21831;-81
2021/12/12 06:50:34;;;;;;;75.25;59.15;;;;;;;-0.06;100.00;101129.13;1750640;82;21279;-80
2021/12/12 06:53:41;;;;;;;51.10;34.78;;;;;;;-0.11;100.00;101125.36;1750178;82;21312;-80
2021/12/12 06:56:46;;;;;;;117.40;93.07;;;;;;;-0.16;100.00;101122.55;1750352;82;21319;-81
2021/12/12 06:59:52;;;;;;;74.42;62.65;;;;;;;-0.19;100.00;101116.00;1750676;82;21811;-81
2021/12/12 07:02:56;;;;;;;53.70;44.73;;;;;;;-0.21;100.00;101125.98;1750811;82;21268;-81
2021/12/12 07:06:02;;;;;;;53.40;42.45;;;;;;;-0.24;100.00;101144.97;1750759;82;21272;-81
2021/12/12 07:09:10;;;;;;;94.32;71.77;;;;;;;-0.24;100.00;101126.16;1749636;82;21839;-80
2021/12/12 07:12:23;;;;;;;114.35;98.20;;;;;;;-0.18;100.00;101125.83;1749772;82;21228;-81
2021/12/12 07:15:26;;;;;;;40.25;31.73;;;;;;;-0.20;100.00;101131.27;1750814;82;21266;-80
2021/12/12 07:18:37;;;;;;;37.53;25.25;;;;;;;-0.20;100.00;101137.98;1750816;82;21715;-81
2021/12/12 07:21:45;;;;;;;44.00;35.20;;;;;;;-0.17;100.00;101145.03;1749783;82;21192;-80
2021/12/12 07:24:50;;;;;;;95.65;76.65;;;;;;;-0.16;100.00;101142.72;1750628;82;21164;-81
2021/12/12 07:28:00;;;;;;;59.85;47.13;;;;;;;-0.15;100.00;101132.34;1750727;82;21294;-81
2021/12/12 07:31:10;;;;;;;30.05;19.25;;;;;;;-0.11;100.00;101134.78;1750686;82;21243;-80
2021/12/12 07:34:19;;;;;;;22.75;14.05;;;;;;;-0.04;100.00;101121.86;1749913;82;21338;-80
2021/12/12 07:37:24;;;;;;;30.17;18.45;;;;;;;-0.02;100.00;101134.25;1749651;82;21311;-81
2021/12/12 07:40:30;;;;;;;34.88;27.00;;;;;;;-0.04;100.00;101139.34;1743935;82;21379;-80
2021/12/12 07:43:38;;;;;;;32.67;21.37;;;;;;;-0.04;100.00;101133.97;1739915;82;21244;-81
2021/12/12 07:46:43;;;;;;;23.75;15.38;;;;;;;-0.04;100.00;101129.45;1738091;82;21280;-81
2021/12/12 07:49:53;;;;;;;40.70;29.25;;;;;;;0.03;100.00;101129.08;1739021;82;21323;-80
2021/12/12 07:52:59;;;;;;;55.48;30.90;;;;;;;0.10;100.00;101110.30;1740571;82;21177;-81
2021/12/12 07:56:04;;;;;;;17.87;10.50;;;;;;;0.17;100.00;101114.34;1740139;82;21361;-81
2021/12/12 07:59:12;;;;;;;30.12;23.67;;;;;;;0.16;100.00;101114.83;1737995;82;21244;-81
2021/12/12 08:02:18;;;;;;;38.13;28.65;;;;;;;0.16;100.00;101116.66;1738004;82;21933;-80
2021/12/12 08:05:29;;;;;;;25.25;17.52;;;;;;;0.17;100.00;101116.56;1740460;82;21271;-80
2021/12/12 08:08:34;;;;;;;38.55;30.32;;;;;;;0.20;100.00;101122.25;1740778;82;21300;-80
2021/12/12 08:11:40;;;;;;;42.95;35.78;;;;;;;0.24;100.00;101115.25;1740512;82;21339;-80
2021/12/12 08:14:46;;;;;;;33.95;28.52;;;;;;;0.28;100.00;101116.39;1740554;82;21276;-81
2021/12/12 08:17:50;;;;;;;22.02;13.22;;;;;;;0.33;100.00;101104.87;1740171;81;21315;-80
2021/12/12 08:20:58;;;;;;;47.23;26.02;;;;;;;0.42;100.00;101098.46;1740549;82;21267;-80
2021/12/12 08:24:03;;;;;;;28.15;16.60;;;;;;;0.44;100.00;101091.18;1739679;82;21917;-80
2021/12/12 08:27:08;;;;;;;29.32;21.50;;;;;;;0.44;100.00;101087.63;1739543;82;21375;-80
2021/12/12 08:30:15;;;;;;;31.23;17.00;;;;;;;0.44;100.00;101082.24;1738188;82;21366;-81
2021/12/12 08:33:20;;;;;;;31.48;21.37;;;;;;;0.38;100.00;101075.89;1739472;82;21809;-80
2021/12/12 08:36:25;;;;;;;28.12;17.73;;;;;;;0.41;100.00;101067.61;1739517;82;21298;-80
2021/12/12 08:39:30;;;;;;;25.65;14.53;;;;;;;0.44;100.00;101080.41;1739610;82;21858;-81
2021/12/12 08:42:36;;;;;;;26.68;15.45;;;;;;;0.44;100.00;101070.13;1736085;82;21315;-81
2021/12/12 08:45:40;;;;;;;25.85;14.10;;;;;;;0.43;100.00;101065.71;1737682;82;21327;-80
2021/12/12 08:48:51;;;;;;;29.35;14.75;;;;;;;0.39;100.00;101077.62;1737635;82;21185;-81
2021/12/12 08:52:07;;;;;;;21.97;13.22;;;;;;;0.37;100.00;101072.30;1737775;82;21811;-80
2021/12/12 08:55:20;;;;;;;25.30;14.03;;;;;;;0.39;100.00;101065.02;1737758;82;21684;-81
2021/12/12 08:58:28;;;;;;;25.85;14.05;;;;;;;0.43;100.00;101075.13;1736602;82;21362;-80
2021/12/12 09:01:34;;;;;;;30.77;15.20;;;;;;;0.42;100.00;101063.95;1735445;82;21268;-81
2021/12/12 09:04:44;;;;;;;25.17;14.63;;;;;;;0.41;100.00;101051.46;1736733;82;21354;-81
2021/12/12 09:07:53;;;;;;;29.00;15.43;;;;;;;0.45;100.00;101051.19;1737552;82;21311;-81
2021/12/12 09:11:10;;;;;;;28.07;15.83;;;;;;;0.46;100.00;101042.62;1737794;82;21264;-81
2021/12/12 09:14:18;;;;;;;34.25;16.95;;;;;;;0.46;100.00;101047.52;1737642;82;21264;-80
2021/12/12 09:17:36;;;;;;;28.38;16.55;;;;;;;0.48;100.00;101038.89;1737713;81;21303;-81
2021/12/12 09:20:56;;;;;;;33.50;17.87;;;;;;;0.49;100.00;101042.45;1737713;82;21153;-81
2021/12/12 09:24:16;;;;;;;31.12;15.23;;;;;;;0.51;100.00;101039.17;1737802;82;21276;-80
2021/12/12 09:27:40;;;;;;;30.72;17.20;;;;;;;0.52;100.00;101032.84;1737220;82;21867;-80
2021/12/12 09:30:45;;;;;;;29.25;16.95;;;;;;;0.53;100.00;101029.67;1736623;82;21244;-80
2021/12/12 09:33:59;;;;;;;33.33;19.02;;;;;;;0.55;100.00;101029.95;1736596;82;21197;-81
2021/12/12 09:37:08;;;;;;;30.77;18.23;;;;;;;0.57;100.00;101028.53;1737618;82;21267;-80
2021/12/12 09:40:37;;;;;;;33.45;18.87;;;;;;;0.62;100.00;101040.73;1737330;82;21240;-81
2021/12/12 09:44:20;;;;;;;34.05;18.95;;;;;;;0.58;100.00;101036.98;1736047;81;21863;-81
2021/12/12 09:47:59;;;;;;;40.83;20.48;;;;;;;0.51;100.00;101026.57;1735522;82;21319;-81
2021/12/12 09:51:41;;;;;;;32.50;18.37;;;;;;;0.46;100.00;101025.12;1736761;82;21233;-80
2021/12/12 09:55:08;;;;;;;36.68;19.35;;;;;;;0.45;100.00;101013.98;1673573;85;21328;-81
2021/12/12 09:58:43;;;;;;;36.48;19.70;;;;;;;0.41;100.00;101011.95;1736440;82;21836;-81
2021/12/12 10:01:57;;;;;;;36.60;20.65;;;;;;;0.38;100.00;101022.92;1736635;82;21835;-81
2021/12/12 10:05:17;;;;;;;38.08;21.80;;;;;;;0.41;100.00;101020.03;1736621;82;21343;-81
2021/12/12 10:09:01;;;;;;;40.38;21.00;;;;;;;0.50;100.00;101030.72;1736572;82;21747;-81
2021/12/12 10:12:15;;;;;;;40.55;21.50;;;;;;;0.55;100.00;101026.39;1735067;82;21193;-81
2021/12/12 10:15:34;;;;;;;37.55;20.95;;;;;;;0.59;100.00;101023.42;1737558;82;21268;-81
2021/12/12 10:19:01;;;;;;;45.25;25.05;;;;;;;0.58;100.00;101025.73;1735931;82;21335;-81
2021/12/12 10:22:41;;;;;;;46.70;24.43;;;;;;;0.60;100.00;101013.02;1736664;82;21191;-81
2021/12/12 10:26:04;;;;;;;41.77;23.27;;;;;;;0.61;100.00;101021.96;1734998;82;21196;-81
2021/12/12 10:29:20;;;;;;;47.55;23.38;;;;;;;0.56;100.00;101022.25;1737583;82;21268;-81
2021/12/12 10:32:33;;;;;;;45.15;20.72;;;;;;;0.58;100.00;101024.38;1735957;82;21176;-81
2021/12/12 10:35:44;;;;;;;46.05;24.60;;;;;;;0.57;100.00;101015.06;1737638;82;21271;-80
2021/12/12 10:38:56;;;;;;;51.15;23.47;;;;;;;0.48;100.00;101009.77;1737781;82;21268;-80
2021/12/12 10:42:06;;;;;;;43.90;22.90;;;;;;;0.48;100.00;101013.80;1736623;82;21264;-81
2021/12/12 10:45:36;;;;;;;40.40;20.40;;;;;;;0.50;100.00;101003.80;1736074;81;21826;-81
2021/12/12 10:49:09;;;;;;;52.38;25.00;;;;;;;0.51;100.00;101006.86;1740344;82;21776;-81
2021/12/12 10:52:19;;;;;;;63.83;29.95;;;;;;;0.56;100.00;101002.55;1738955;82;21759;-81
2021/12/12 10:55:33;;;;;;;;;;;;;;;0.59;100.00;100985.72;1741754;82;21367;-80
2021/12/12 10:59:05;;;;;;;73.55;31.55;;;;;;;0.61;100.00;100976.19;1740564;82;20190;-81
2021/12/12 11:02:17;;;;;;;50.20;25.60;;;;;;;0.58;100.00;100974.58;1740449;82;21685;-81
2021/12/12 11:05:26;;;;;;;57.95;25.50;;;;;;;0.62;100.00;100974.77;1740225;82;21177;-81
2021/12/12 11:08:51;;;;;;;56.20;27.05;;;;;;;0.63;100.00;100965.73;1739458;82;21296;-81
2021/12/12 11:12:22;;;;;;;55.50;26.40;;;;;;;0.62;100.00;100965.35;1739484;82;21779;-81
2021/12/12 11:15:44;;;;;;;49.93;24.45;;;;;;;0.66;100.00;100976.77;1739524;82;21307;-80
2021/12/12 11:18:57;;;;;;;51.98;30.97;;;;;;;0.62;100.00;100979.30;1737929;82;21216;-81
2021/12/12 11:22:10;;;;;;;108.78;71.42;;;;;;;0.58;100.00;100985.83;1740467;82;21287;-81
2021/12/12 11:25:23;;;;;;;62.53;34.43;;;;;;;0.54;100.00;100986.98;1739833;82;21204;-81
2021/12/12 11:28:37;;;;;;;59.55;31.07;;;;;;;0.47;100.00;100975.70;1738090;82;21197;-81
2021/12/12 11:32:03;;;;;;;56.55;29.95;;;;;;;0.45;100.00;100961.01;1738080;82;21331;-81
2021/12/12 11:35:14;;;;;;;64.25;30.57;;;;;;;0.48;100.00;100966.70;1739909;82;21173;-81
2021/12/12 11:38:30;;;;;;;71.35;41.08;;;;;;;0.49;100.00;100975.16;1739569;82;21189;-81
2021/12/12 11:41:52;;;;;;;81.50;50.78;;;;;;;0.45;100.00;100977.64;1740498;82;21184;-80
2021/12/12 11:45:31;;;;;;;52.83;30.90;;;;;;;0.40;100.00;100960.92;1738508;82;21819;-80
2021/12/12 11:48:59;;;;;;;58.30;29.52;;;;;;;0.38;100.00;100953.44;1739659;82;21237;-80
2021/12/12 11:52:09;;;;;;;57.55;33.25;;;;;;;0.39;100.00;100947.95;1738103;82;21355;-80
2021/12/12 11:55:34;;;;;;;78.92;49.40;;;;;;;0.45;100.00;100949.38;1739718;82;21299;-81
2021/12/12 11:59:15;;;;;;;101.80;63.95;;;;;;;0.46;100.00;100949.77;1739079;82;21310;-81
2021/12/12 12:02:43;;;;;;;52.15;27.25;;;;;;;0.45;100.00;100954.77;1739260;82;21225;-80
2021/12/12 12:06:10;;;;;;;45.40;23.00;;;;;;;0.44;100.00;100952.56;1737902;82;21355;-81
2021/12/12 12:09:23;;;;;;;58.75;37.28;;;;;;;0.41;100.00;100940.62;1740605;82;21165;-80
2021/12/12 12:13:15;;;;;;;103.40;74.75;;;;;;;0.42;100.00;100944.18;1739477;82;21208;-81
2021/12/12 12:16:58;;;;;;;65.50;40.78;;;;;;;0.43;100.00;100937.38;1739429;81;21347;-80
2021/12/12 12:20:14;;;;;;;68.20;37.70;;;;;;;0.42;100.00;100944.18;1738897;82;21904;-81
2021/12/12 12:23:33;;;;;;;80.15;50.40;;;;;;;0.46;100.00;100929.57;1739464;82;21185;-81
2021/12/12 12:26:51;;;;;;;83.20;58.55;;;;;;;0.45;100.00;100927.37;1739510;82;21299;-81
2021/12/12 12:30:38;;;;;;;62.58;35.43;;;;;;;0.44;100.00;100932.86;1724002;82;21871;-81
2021/12/12 12:34:21;;;;;;;55.15;32.35;;;;;;;0.42;100.00;100919.47;1717269;82;21370;-80
2021/12/12 12:38:08;;;;;;;53.13;26.85;;;;;;;0.43;100.00;100918.53;1739957;82;21203;-81
2021/12/12 12:42:04;;;;;;;54.13;27.32;;;;;;;0.43;100.00;100927.95;1739141;82;21201;-80
2021/12/12 12:45:40;;;;;;;52.20;27.98;;;;;;;0.42;100.00;100936.11;1739524;82;21307;-81
2021/12/12 12:49:06;;;;;;;74.37;46.95;;;;;;;0.48;100.00;100926.32;1720909;83;21183;-80
2021/12/12 12:52:47;;;;;;;49.60;27.17;;;;;;;0.51;100.00;100923.41;1722465;83;21322;-80
2021/12/12 12:56:18;;;;;;;67.22;41.10;;;;;;;0.52;100.00;100929.20;1707401;83;21921;-81
2021/12/12 13:00:22;;;;;;;50.52;31.60;;;;;;;0.52;100.00;100921.13;1722373;83;21845;-80
2021/12/12 13:03:45;;;;;;;79.37;43.98;;;;;;;0.54;100.00;100931.31;1693723;84;21281;-80
2021/12/12 13:07:23;;;;;;;61.92;33.53;;;;;;;0.48;100.00;100914.20;1650016;86;21322;-81
2021/12/12 13:10:33;;;;;;;53.38;31.93;;;;;;;0.43;100.00;100925.75;1670894;86;21681;-80
2021/12/12 13:13:58;;;;;;;68.65;43.60;;;;;;;0.38;100.00;100925.17;1670853;86;21331;-81
2021/12/12 13:17:12;;;;;;;72.12;45.67;;;;;;;0.39;100.00;100920.17;1669384;84;21343;-81
2021/12/12 13:20:52;;;;;;;56.35;35.03;;;;;;;0.34;100.00;100923.63;1669755;86;21374;-80
2021/12/12 13:24:27;;;;;;;64.60;43.90;;;;;;;0.33;100.00;100922.77;1669768;86;21335;-81
2021/12/12 13:28:04;;;;;;;69.80;45.95;;;;;;;0.35;100.00;100925.36;1662182;85;21342;-81
2021/12/12 13:31:16;;;;;;;75.32;50.03;;;;;;;0.38;100.00;100926.52;1669792;86;21331;-81
2021/12/12 13:34:41;;;;;;;77.58;59.13;;;;;;;0.36;100.00;100922.56;1670846;86;21275;-81
2021/12/12 13:38:28;;;;;;;56.80;30.77;;;;;;;0.35;100.00;100921.32;1670860;86;21323;-80
2021/12/12 13:41:42;;;;;;;46.63;28.47;;;;;;;0.34;100.00;100917.77;1670867;86;21208;-80
2021/12/12 13:45:35;;;;;;;50.92;34.50;;;;;;;0.38;100.00;100907.69;1670821;86;21331;-81
2021/12/12 13:48:57;;;;;;;52.23;33.50;;;;;;;0.41;100.00;100918.23;1680460;84;21260;-81
2021/12/12 13:52:11;;;;;;;47.55;31.20;;;;;;;0.42;100.00;100913.23;1683398;85;21923;-81
2021/12/12 13:55:28;;;;;;;48.90;36.13;;;;;;;0.39;100.00;100909.41;1700843;84;21875;-81
2021/12/12 13:58:51;;;;;;;93.75;70.67;;;;;;;0.37;100.00;100905.92;1658715;86;21261;-81
2021/12/12 14:02:02;;;;;;;48.75;33.80;;;;;;;0.38;100.00;100904.99;1686589;85;21323;-81
2021/12/12 14:05:16;;;;;;;56.08;40.30;;;;;;;0.38;100.00;100905.86;1700577;84;21296;-81
2021/12/12 14:08:25;;;;;;;57.38;39.60;;;;;;;0.38;100.00;100907.20;1660394;86;21324;-81
2021/12/12 14:11:35;;;;;;;102.97;76.57;;;;;;;0.32;100.00;100911.59;1687953;85;21327;-81
2021/12/12 14:14:45;;;;;;;41.28;21.10;;;;;;;0.30;100.00;100905.95;1700781;84;21800;-80
2021/12/12 14:17:58;;;;;;;70.45;51.25;;;;;;;0.32;100.00;100918.81;1669736;84;21228;-81
2021/12/12 14:21:03;;;;;;;105.90;86.82;;;;;;;0.31;100.00;100918.44;1660737;86;21844;-81
2021/12/12 14:24:11;;;;;;;57.70;44.73;;;;;;;0.30;100.00;100912.67;1687672;85;21824;-80
2021/12/12 14:27:19;;;;;;;37.35;23.95;;;;;;;0.29;100.00;100915.84;1682455;84;21304;-80
2021/12/12 14:30:29;;;;;;;45.83;30.48;;;;;;;0.30;100.00;100917.57;1660948;86;21320;-81
2021/12/12 14:33:31;;;;;;;40.10;23.62;;;;;;;0.33;100.00;100913.80;1687681;85;21879;-81
2021/12/12 14:36:40;;;;;;;48.28;32.40;;;;;;;0.34;100.00;100907.48;1681081;84;21327;-81
2021/12/12 14:39:47;;;;;;;54.93;36.93;;;;;;;0.32;100.00;100909.39;1660694;86;21276;-81
2021/12/12 14:43:21;;;;;;;74.30;53.52;;;;;;;0.28;100.00;100895.25;1685789;85;21356;-80
2021/12/12 14:46:31;;;;;;;43.45;29.00;;;;;;;0.27;100.00;100900.75;1690950;84;21348;-81
2021/12/12 14:49:47;;;;;;;42.35;27.85;;;;;;;0.24;100.00;100895.95;1660247;86;21363;-80